sensor_id;sensor_type;location;lat;lon;timestamp;P1;durP1;ratioP1;P2;durP2;ratioP2
46355;SDS011;32066;49.474;11.106;2023-07-22T00:01:58;7.88;;;4.00;;
46355;SDS011;32066;49.474;11.106;2023-07-22T00:04:27;6.75;;;3.63;;
46355;SDS011;32066;49.474;11.106;2023-07-22T00:06:56;6.93;;;4.00;;
46355;SDS011;32066;49.474;11.106;2023-07-22T00:09:24;6.93;;;3.47;;
46355;SDS011;32066;49.474;11.106;2023-07-22T00:11:53;6.70;;;3.65;;
46355;SDS011;32066;49.474;11.106;2023-07-22T00:14:22;6.45;;;3.45;;
46355;SDS011;32066;49.474;11.106;2023-07-22T00:16:53;8.13;;;3.80;;
46355;SDS011;32066;49.474;11.106;2023-07-22T00:19:22;8.20;;;3.45;;
46355;SDS011;32066;49.474;11.106;2023-07-22T00:21:51;7.80;;;3.35;;
46355;SDS011;32066;49.474;11.106;2023-07-22T00:24:20;6.22;;;3.67;;
46355;SDS011;32066;49.474;11.106;2023-07-22T00:26:49;6.50;;;3.30;;
46355;SDS011;32066;49.474;11.106;2023-07-22T00:29:17;5.88;;;3.75;;
46355;SDS011;32066;49.474;11.106;2023-07-22T00:31:46;7.25;;;3.50;;
46355;SDS011;32066;49.474;11.106;2023-07-22T00:34:17;6.82;;;3.45;;
46355;SDS011;32066;49.474;11.106;2023-07-22T00:36:47;7.55;;;3.50;;
46355;SDS011;32066;49.474;11.106;2023-07-22T00:39:15;6.13;;;3.75;;
46355;SDS011;32066;49.474;11.106;2023-07-22T00:41:45;7.07;;;3.92;;
46355;SDS011;32066;49.474;11.106;2023-07-22T00:44:14;7.80;;;3.85;;
46355;SDS011;32066;49.474;11.106;2023-07-22T00:46:42;9.13;;;3.97;;
46355;SDS011;32066;49.474;11.106;2023-07-22T00:49:11;10.38;;;3.92;;
46355;SDS011;32066;49.474;11.106;2023-07-22T00:51:45;8.07;;;4.13;;
46355;SDS011;32066;49.474;11.106;2023-07-22T00:54:13;5.85;;;3.60;;
46355;SDS011;32066;49.474;11.106;2023-07-22T00:56:42;7.38;;;3.80;;
46355;SDS011;32066;49.474;11.106;2023-07-22T00:59:12;5.60;;;3.08;;
46355;SDS011;32066;49.474;11.106;2023-07-22T01:01:41;6.78;;;3.63;;
46355;SDS011;32066;49.474;11.106;2023-07-22T01:04:13;6.07;;;3.70;;
46355;SDS011;32066;49.474;11.106;2023-07-22T01:06:45;6.65;;;3.83;;
46355;SDS011;32066;49.474;11.106;2023-07-22T01:09:14;6.93;;;3.72;;
46355;SDS011;32066;49.474;11.106;2023-07-22T01:11:43;6.15;;;3.70;;
46355;SDS011;32066;49.474;11.106;2023-07-22T01:14:11;7.20;;;3.33;;
46355;SDS011;32066;49.474;11.106;2023-07-22T01:16:40;6.50;;;3.42;;
46355;SDS011;32066;49.474;11.106;2023-07-22T01:19:09;6.05;;;3.60;;
46355;SDS011;32066;49.474;11.106;2023-07-22T01:21:46;6.30;;;3.40;;
46355;SDS011;32066;49.474;11.106;2023-07-22T01:24:18;7.18;;;3.55;;
46355;SDS011;32066;49.474;11.106;2023-07-22T01:26:47;10.18;;;4.18;;
46355;SDS011;32066;49.474;11.106;2023-07-22T01:29:15;6.65;;;3.85;;
46355;SDS011;32066;49.474;11.106;2023-07-22T01:31:46;6.88;;;3.55;;
46355;SDS011;32066;49.474;11.106;2023-07-22T01:34:17;5.75;;;3.55;;
46355;SDS011;32066;49.474;11.106;2023-07-22T01:36:46;6.32;;;3.50;;
46355;SDS011;32066;49.474;11.106;2023-07-22T01:39:18;8.25;;;3.90;;
46355;SDS011;32066;49.474;11.106;2023-07-22T01:41:47;6.57;;;3.60;;
46355;SDS011;32066;49.474;11.106;2023-07-22T01:44:15;7.22;;;3.40;;
46355;SDS011;32066;49.474;11.106;2023-07-22T01:46:44;6.88;;;3.80;;
46355;SDS011;32066;49.474;11.106;2023-07-22T01:49:13;8.20;;;3.65;;
46355;SDS011;32066;49.474;11.106;2023-07-22T01:51:42;8.82;;;3.92;;
46355;SDS011;32066;49.474;11.106;2023-07-22T01:54:10;5.97;;;3.53;;
46355;SDS011;32066;49.474;11.106;2023-07-22T01:56:42;7.75;;;3.60;;
46355;SDS011;32066;49.474;11.106;2023-07-22T01:59:11;6.95;;;3.60;;
46355;SDS011;32066;49.474;11.106;2023-07-22T02:01:39;6.03;;;3.33;;
46355;SDS011;32066;49.474;11.106;2023-07-22T02:04:08;6.05;;;3.50;;
46355;SDS011;32066;49.474;11.106;2023-07-22T02:06:37;7.60;;;3.72;;
46355;SDS011;32066;49.474;11.106;2023-07-22T02:09:05;7.68;;;3.63;;
46355;SDS011;32066;49.474;11.106;2023-07-22T02:11:34;6.53;;;3.83;;
46355;SDS011;32066;49.474;11.106;2023-07-22T02:14:06;6.82;;;3.95;;
46355;SDS011;32066;49.474;11.106;2023-07-22T02:16:34;7.80;;;3.35;;
46355;SDS011;32066;49.474;11.106;2023-07-22T02:19:04;6.68;;;3.60;;
46355;SDS011;32066;49.474;11.106;2023-07-22T02:21:39;5.55;;;3.60;;
46355;SDS011;32066;49.474;11.106;2023-07-22T02:24:09;7.38;;;3.85;;
46355;SDS011;32066;49.474;11.106;2023-07-22T02:26:37;5.88;;;3.40;;
46355;SDS011;32066;49.474;11.106;2023-07-22T02:29:09;10.45;;;3.67;;
46355;SDS011;32066;49.474;11.106;2023-07-22T02:31:37;6.55;;;3.95;;
46355;SDS011;32066;49.474;11.106;2023-07-22T02:34:07;6.95;;;3.58;;
46355;SDS011;32066;49.474;11.106;2023-07-22T02:36:36;6.47;;;3.45;;
46355;SDS011;32066;49.474;11.106;2023-07-22T02:39:04;6.85;;;3.80;;
46355;SDS011;32066;49.474;11.106;2023-07-22T02:41:35;7.90;;;3.63;;
46355;SDS011;32066;49.474;11.106;2023-07-22T02:44:04;6.38;;;3.50;;
46355;SDS011;32066;49.474;11.106;2023-07-22T02:46:35;7.82;;;4.22;;
46355;SDS011;32066;49.474;11.106;2023-07-22T02:49:04;6.68;;;3.70;;
46355;SDS011;32066;49.474;11.106;2023-07-22T02:51:33;6.60;;;3.50;;
46355;SDS011;32066;49.474;11.106;2023-07-22T02:54:01;6.35;;;3.72;;
46355;SDS011;32066;49.474;11.106;2023-07-22T02:56:30;7.07;;;3.45;;
46355;SDS011;32066;49.474;11.106;2023-07-22T02:58:59;6.63;;;3.47;;
46355;SDS011;32066;49.474;11.106;2023-07-22T03:01:27;6.60;;;3.40;;
46355;SDS011;32066;49.474;11.106;2023-07-22T03:03:59;6.20;;;3.50;;
46355;SDS011;32066;49.474;11.106;2023-07-22T03:06:29;6.93;;;3.90;;
46355;SDS011;32066;49.474;11.106;2023-07-22T03:08:57;6.47;;;3.28;;
46355;SDS011;32066;49.474;11.106;2023-07-22T03:11:26;6.03;;;3.90;;
46355;SDS011;32066;49.474;11.106;2023-07-22T03:13:55;8.15;;;3.90;;
46355;SDS011;32066;49.474;11.106;2023-07-22T03:16:23;7.00;;;3.47;;
46355;SDS011;32066;49.474;11.106;2023-07-22T03:18:52;6.05;;;3.70;;
46355;SDS011;32066;49.474;11.106;2023-07-22T03:21:23;5.93;;;3.55;;
46355;SDS011;32066;49.474;11.106;2023-07-22T03:23:52;6.32;;;3.60;;
46355;SDS011;32066;49.474;11.106;2023-07-22T03:26:20;7.25;;;3.08;;
46355;SDS011;32066;49.474;11.106;2023-07-22T03:28:49;7.53;;;3.85;;
46355;SDS011;32066;49.474;11.106;2023-07-22T03:31:18;7.50;;;3.03;;
46355;SDS011;32066;49.474;11.106;2023-07-22T03:33:46;6.25;;;3.30;;
46355;SDS011;32066;49.474;11.106;2023-07-22T03:36:15;5.55;;;3.50;;
46355;SDS011;32066;49.474;11.106;2023-07-22T03:38:46;6.03;;;3.20;;
46355;SDS011;32066;49.474;11.106;2023-07-22T03:41:15;5.53;;;3.30;;
46355;SDS011;32066;49.474;11.106;2023-07-22T03:43:44;7.10;;;3.42;;
46355;SDS011;32066;49.474;11.106;2023-07-22T03:46:13;6.18;;;3.40;;
46355;SDS011;32066;49.474;11.106;2023-07-22T03:48:41;6.60;;;3.90;;
46355;SDS011;32066;49.474;11.106;2023-07-22T03:51:10;6.60;;;3.50;;
46355;SDS011;32066;49.474;11.106;2023-07-22T03:53:39;7.50;;;4.05;;
46355;SDS011;32066;49.474;11.106;2023-07-22T03:56:10;6.53;;;3.80;;
46355;SDS011;32066;49.474;11.106;2023-07-22T03:58:39;7.45;;;3.22;;
46355;SDS011;32066;49.474;11.106;2023-07-22T04:01:10;9.02;;;3.90;;
46355;SDS011;32066;49.474;11.106;2023-07-22T04:03:38;8.52;;;3.70;;
46355;SDS011;32066;49.474;11.106;2023-07-22T04:06:07;8.32;;;3.90;;
46355;SDS011;32066;49.474;11.106;2023-07-22T04:08:36;6.60;;;3.70;;
46355;SDS011;32066;49.474;11.106;2023-07-22T04:11:04;6.07;;;3.42;;
46355;SDS011;32066;49.474;11.106;2023-07-22T04:13:36;5.82;;;3.30;;
46355;SDS011;32066;49.474;11.106;2023-07-22T04:16:04;7.18;;;3.70;;
46355;SDS011;32066;49.474;11.106;2023-07-22T04:18:34;6.63;;;3.70;;
46355;SDS011;32066;49.474;11.106;2023-07-22T04:21:02;6.50;;;3.58;;
46355;SDS011;32066;49.474;11.106;2023-07-22T04:23:31;5.85;;;3.38;;
46355;SDS011;32066;49.474;11.106;2023-07-22T04:26:01;6.70;;;3.70;;
46355;SDS011;32066;49.474;11.106;2023-07-22T04:28:32;5.80;;;3.35;;
46355;SDS011;32066;49.474;11.106;2023-07-22T04:31:04;5.80;;;3.38;;
46355;SDS011;32066;49.474;11.106;2023-07-22T04:33:34;6.13;;;3.53;;
46355;SDS011;32066;49.474;11.106;2023-07-22T04:36:03;7.32;;;3.75;;
46355;SDS011;32066;49.474;11.106;2023-07-22T04:38:32;7.85;;;3.90;;
46355;SDS011;32066;49.474;11.106;2023-07-22T04:41:02;6.63;;;4.00;;
46355;SDS011;32066;49.474;11.106;2023-07-22T04:43:31;6.95;;;3.72;;
46355;SDS011;32066;49.474;11.106;2023-07-22T04:46:02;6.82;;;3.38;;
46355;SDS011;32066;49.474;11.106;2023-07-22T04:48:31;7.00;;;4.03;;
46355;SDS011;32066;49.474;11.106;2023-07-22T04:51:00;8.90;;;3.75;;
46355;SDS011;32066;49.474;11.106;2023-07-22T04:53:28;5.70;;;3.25;;
46355;SDS011;32066;49.474;11.106;2023-07-22T04:55:57;6.93;;;3.47;;
46355;SDS011;32066;49.474;11.106;2023-07-22T04:58:27;8.30;;;3.83;;
46355;SDS011;32066;49.474;11.106;2023-07-22T05:00:55;5.78;;;3.33;;
46355;SDS011;32066;49.474;11.106;2023-07-22T05:03:28;5.45;;;3.25;;
46355;SDS011;32066;49.474;11.106;2023-07-22T05:05:56;7.20;;;3.95;;
46355;SDS011;32066;49.474;11.106;2023-07-22T05:08:26;5.65;;;3.67;;
46355;SDS011;32066;49.474;11.106;2023-07-22T05:10:55;6.05;;;3.80;;
46355;SDS011;32066;49.474;11.106;2023-07-22T05:13:24;6.80;;;3.90;;
46355;SDS011;32066;49.474;11.106;2023-07-22T05:15:52;5.75;;;3.60;;
46355;SDS011;32066;49.474;11.106;2023-07-22T05:18:21;9.48;;;3.83;;
46355;SDS011;32066;49.474;11.106;2023-07-22T05:20:52;5.72;;;3.58;;
46355;SDS011;32066;49.474;11.106;2023-07-22T05:23:21;8.05;;;4.03;;
46355;SDS011;32066;49.474;11.106;2023-07-22T05:25:52;8.90;;;3.65;;
46355;SDS011;32066;49.474;11.106;2023-07-22T05:28:21;10.85;;;4.40;;
46355;SDS011;32066;49.474;11.106;2023-07-22T05:30:50;7.05;;;3.70;;
46355;SDS011;32066;49.474;11.106;2023-07-22T05:33:20;5.63;;;3.42;;
46355;SDS011;32066;49.474;11.106;2023-07-22T05:35:51;6.78;;;3.60;;
46355;SDS011;32066;49.474;11.106;2023-07-22T05:38:20;8.27;;;4.03;;
46355;SDS011;32066;49.474;11.106;2023-07-22T05:40:49;6.15;;;3.72;;
46355;SDS011;32066;49.474;11.106;2023-07-22T05:43:19;7.43;;;3.83;;
46355;SDS011;32066;49.474;11.106;2023-07-22T05:45:47;6.30;;;3.88;;
46355;SDS011;32066;49.474;11.106;2023-07-22T05:48:16;6.28;;;3.65;;
46355;SDS011;32066;49.474;11.106;2023-07-22T05:50:46;6.55;;;3.90;;
46355;SDS011;32066;49.474;11.106;2023-07-22T05:53:18;6.15;;;3.60;;
46355;SDS011;32066;49.474;11.106;2023-07-22T05:55:47;9.05;;;3.28;;
46355;SDS011;32066;49.474;11.106;2023-07-22T05:58:15;6.68;;;4.05;;
46355;SDS011;32066;49.474;11.106;2023-07-22T06:00:45;7.57;;;3.47;;
46355;SDS011;32066;49.474;11.106;2023-07-22T06:03:14;6.53;;;3.75;;
46355;SDS011;32066;49.474;11.106;2023-07-22T06:05:42;6.60;;;4.00;;
46355;SDS011;32066;49.474;11.106;2023-07-22T06:08:11;6.72;;;3.70;;
46355;SDS011;32066;49.474;11.106;2023-07-22T06:10:42;9.55;;;4.13;;
46355;SDS011;32066;49.474;11.106;2023-07-22T06:13:11;7.72;;;3.88;;
46355;SDS011;32066;49.474;11.106;2023-07-22T06:15:40;12.57;;;4.32;;
46355;SDS011;32066;49.474;11.106;2023-07-22T06:18:08;7.28;;;3.67;;
46355;SDS011;32066;49.474;11.106;2023-07-22T06:20:37;8.15;;;3.58;;
46355;SDS011;32066;49.474;11.106;2023-07-22T06:23:06;8.77;;;4.45;;
46355;SDS011;32066;49.474;11.106;2023-07-22T06:25:34;6.70;;;3.67;;
46355;SDS011;32066;49.474;11.106;2023-07-22T06:28:05;7.82;;;3.40;;
46355;SDS011;32066;49.474;11.106;2023-07-22T06:30:34;7.90;;;3.30;;
46355;SDS011;32066;49.474;11.106;2023-07-22T06:33:03;7.80;;;4.22;;
46355;SDS011;32066;49.474;11.106;2023-07-22T06:35:31;9.68;;;4.10;;
46355;SDS011;32066;49.474;11.106;2023-07-22T06:38:00;6.20;;;3.85;;
46355;SDS011;32066;49.474;11.106;2023-07-22T06:40:29;7.65;;;3.90;;
46355;SDS011;32066;49.474;11.106;2023-07-22T06:42:57;6.65;;;3.50;;
46355;SDS011;32066;49.474;11.106;2023-07-22T06:45:29;9.82;;;5.03;;
46355;SDS011;32066;49.474;11.106;2023-07-22T06:47:57;11.27;;;4.65;;
46355;SDS011;32066;49.474;11.106;2023-07-22T06:50:26;9.85;;;3.75;;
46355;SDS011;32066;49.474;11.106;2023-07-22T06:52:54;7.78;;;3.92;;
46355;SDS011;32066;49.474;11.106;2023-07-22T06:55:23;7.07;;;3.70;;
46355;SDS011;32066;49.474;11.106;2023-07-22T06:57:52;8.68;;;3.80;;
46355;SDS011;32066;49.474;11.106;2023-07-22T07:00:23;7.45;;;4.28;;
46355;SDS011;32066;49.474;11.106;2023-07-22T07:02:54;9.02;;;4.13;;
46355;SDS011;32066;49.474;11.106;2023-07-22T07:05:23;7.45;;;3.80;;
46355;SDS011;32066;49.474;11.106;2023-07-22T07:07:51;8.90;;;3.78;;
46355;SDS011;32066;49.474;11.106;2023-07-22T07:10:20;7.60;;;3.88;;
46355;SDS011;32066;49.474;11.106;2023-07-22T07:12:49;6.88;;;4.47;;
46355;SDS011;32066;49.474;11.106;2023-07-22T07:15:17;7.32;;;4.03;;
46355;SDS011;32066;49.474;11.106;2023-07-22T07:17:46;6.85;;;4.05;;
46355;SDS011;32066;49.474;11.106;2023-07-22T07:20:17;10.10;;;3.72;;
46355;SDS011;32066;49.474;11.106;2023-07-22T07:22:46;6.93;;;3.72;;
46355;SDS011;32066;49.474;11.106;2023-07-22T07:25:15;9.38;;;4.00;;
46355;SDS011;32066;49.474;11.106;2023-07-22T07:27:43;8.52;;;4.50;;
46355;SDS011;32066;49.474;11.106;2023-07-22T07:30:12;7.85;;;4.95;;
46355;SDS011;32066;49.474;11.106;2023-07-22T07:32:41;9.40;;;5.07;;
46355;SDS011;32066;49.474;11.106;2023-07-22T07:35:09;7.93;;;4.55;;
46355;SDS011;32066;49.474;11.106;2023-07-22T07:37:40;8.13;;;4.93;;
46355;SDS011;32066;49.474;11.106;2023-07-22T07:40:09;8.43;;;4.85;;
46355;SDS011;32066;49.474;11.106;2023-07-22T07:42:39;8.45;;;4.93;;
46355;SDS011;32066;49.474;11.106;2023-07-22T07:45:08;9.30;;;4.65;;
46355;SDS011;32066;49.474;11.106;2023-07-22T07:47:37;6.75;;;4.57;;
46355;SDS011;32066;49.474;11.106;2023-07-22T07:50:06;8.10;;;4.68;;
46355;SDS011;32066;49.474;11.106;2023-07-22T07:52:35;8.20;;;4.43;;
46355;SDS011;32066;49.474;11.106;2023-07-22T07:55:07;7.97;;;4.50;;
46355;SDS011;32066;49.474;11.106;2023-07-22T07:57:36;6.88;;;4.43;;
46355;SDS011;32066;49.474;11.106;2023-07-22T08:00:05;7.45;;;4.20;;
46355;SDS011;32066;49.474;11.106;2023-07-22T08:02:36;8.65;;;4.30;;
46355;SDS011;32066;49.474;11.106;2023-07-22T08:05:05;9.90;;;4.82;;
46355;SDS011;32066;49.474;11.106;2023-07-22T08:07:34;9.88;;;5.68;;
46355;SDS011;32066;49.474;11.106;2023-07-22T08:10:03;10.20;;;5.13;;
46355;SDS011;32066;49.474;11.106;2023-07-22T08:12:35;7.07;;;4.40;;
46355;SDS011;32066;49.474;11.106;2023-07-22T08:15:05;10.70;;;5.30;;
46355;SDS011;32066;49.474;11.106;2023-07-22T08:17:34;7.60;;;4.68;;
46355;SDS011;32066;49.474;11.106;2023-07-22T08:20:03;8.38;;;4.45;;
46355;SDS011;32066;49.474;11.106;2023-07-22T08:22:33;8.25;;;4.38;;
46355;SDS011;32066;49.474;11.106;2023-07-22T08:25:02;8.57;;;5.00;;
46355;SDS011;32066;49.474;11.106;2023-07-22T08:27:31;13.13;;;4.80;;
46355;SDS011;32066;49.474;11.106;2023-07-22T08:30:02;8.82;;;4.28;;
46355;SDS011;32066;49.474;11.106;2023-07-22T08:32:32;7.20;;;4.25;;
46355;SDS011;32066;49.474;11.106;2023-07-22T08:35:01;7.95;;;4.43;;
46355;SDS011;32066;49.474;11.106;2023-07-22T08:37:30;8.20;;;4.18;;
46355;SDS011;32066;49.474;11.106;2023-07-22T08:39:59;9.52;;;4.85;;
46355;SDS011;32066;49.474;11.106;2023-07-22T08:42:28;9.23;;;4.80;;
46355;SDS011;32066;49.474;11.106;2023-07-22T08:45:02;8.68;;;5.47;;
46355;SDS011;32066;49.474;11.106;2023-07-22T08:47:33;7.18;;;4.47;;
46355;SDS011;32066;49.474;11.106;2023-07-22T08:50:03;8.15;;;4.80;;
46355;SDS011;32066;49.474;11.106;2023-07-22T08:52:33;10.15;;;4.38;;
46355;SDS011;32066;49.474;11.106;2023-07-22T08:55:03;8.48;;;4.38;;
46355;SDS011;32066;49.474;11.106;2023-07-22T08:57:33;8.20;;;5.40;;
46355;SDS011;32066;49.474;11.106;2023-07-22T09:00:06;8.80;;;5.07;;
46355;SDS011;32066;49.474;11.106;2023-07-22T09:02:37;8.07;;;4.88;;
46355;SDS011;32066;49.474;11.106;2023-07-22T09:05:07;7.32;;;3.80;;
46355;SDS011;32066;49.474;11.106;2023-07-22T09:07:37;8.52;;;4.47;;
46355;SDS011;32066;49.474;11.106;2023-07-22T09:10:06;9.93;;;4.40;;
46355;SDS011;32066;49.474;11.106;2023-07-22T09:12:37;7.45;;;4.10;;
46355;SDS011;32066;49.474;11.106;2023-07-22T09:15:10;7.95;;;4.85;;
46355;SDS011;32066;49.474;11.106;2023-07-22T09:17:41;11.90;;;5.20;;
46355;SDS011;32066;49.474;11.106;2023-07-22T09:20:10;7.72;;;4.32;;
46355;SDS011;32066;49.474;11.106;2023-07-22T09:22:43;9.15;;;5.43;;
46355;SDS011;32066;49.474;11.106;2023-07-22T09:25:13;7.32;;;4.60;;
46355;SDS011;32066;49.474;11.106;2023-07-22T09:27:44;6.75;;;4.00;;
46355;SDS011;32066;49.474;11.106;2023-07-22T09:30:24;9.25;;;3.90;;
46355;SDS011;32066;49.474;11.106;2023-07-22T09:32:54;9.75;;;4.88;;
46355;SDS011;32066;49.474;11.106;2023-07-22T09:35:24;8.75;;;4.65;;
46355;SDS011;32066;49.474;11.106;2023-07-22T09:37:54;10.60;;;4.70;;
46355;SDS011;32066;49.474;11.106;2023-07-22T09:40:24;8.57;;;4.18;;
46355;SDS011;32066;49.474;11.106;2023-07-22T09:42:55;10.13;;;4.55;;
46355;SDS011;32066;49.474;11.106;2023-07-22T09:45:28;8.00;;;4.60;;
46355;SDS011;32066;49.474;11.106;2023-07-22T09:47:58;9.52;;;4.20;;
46355;SDS011;32066;49.474;11.106;2023-07-22T09:50:27;9.07;;;4.50;;
46355;SDS011;32066;49.474;11.106;2023-07-22T09:52:56;6.85;;;3.65;;
46355;SDS011;32066;49.474;11.106;2023-07-22T09:55:27;8.05;;;3.58;;
46355;SDS011;32066;49.474;11.106;2023-07-22T09:57:57;7.13;;;3.60;;
46355;SDS011;32066;49.474;11.106;2023-07-22T10:00:30;8.85;;;3.83;;
46355;SDS011;32066;49.474;11.106;2023-07-22T10:03:00;8.13;;;4.40;;
46355;SDS011;32066;49.474;11.106;2023-07-22T10:05:30;9.40;;;4.72;;
46355;SDS011;32066;49.474;11.106;2023-07-22T10:08:02;7.45;;;3.63;;
46355;SDS011;32066;49.474;11.106;2023-07-22T10:10:33;7.85;;;4.40;;
46355;SDS011;32066;49.474;11.106;2023-07-22T10:13:03;9.63;;;4.30;;
46355;SDS011;32066;49.474;11.106;2023-07-22T10:15:35;7.78;;;4.47;;
46355;SDS011;32066;49.474;11.106;2023-07-22T10:18:04;9.30;;;4.18;;
46355;SDS011;32066;49.474;11.106;2023-07-22T10:20:33;7.00;;;3.60;;
46355;SDS011;32066;49.474;11.106;2023-07-22T10:23:02;11.52;;;3.85;;
46355;SDS011;32066;49.474;11.106;2023-07-22T10:25:32;7.57;;;3.90;;
46355;SDS011;32066;49.474;11.106;2023-07-22T10:28:01;5.93;;;3.30;;
46355;SDS011;32066;49.474;11.106;2023-07-22T10:30:30;6.05;;;3.50;;
46355;SDS011;32066;49.474;11.106;2023-07-22T10:33:01;6.88;;;3.42;;
46355;SDS011;32066;49.474;11.106;2023-07-22T10:35:40;7.32;;;3.70;;
46355;SDS011;32066;49.474;11.106;2023-07-22T10:38:10;9.90;;;4.05;;
46355;SDS011;32066;49.474;11.106;2023-07-22T10:40:46;6.00;;;3.50;;
46355;SDS011;32066;49.474;11.106;2023-07-22T10:43:18;6.05;;;3.30;;
46355;SDS011;32066;49.474;11.106;2023-07-22T10:45:54;8.02;;;3.35;;
46355;SDS011;32066;49.474;11.106;2023-07-22T10:48:28;6.00;;;3.65;;
46355;SDS011;32066;49.474;11.106;2023-07-22T10:51:05;7.40;;;3.72;;
46355;SDS011;32066;49.474;11.106;2023-07-22T10:53:38;7.10;;;3.42;;
46355;SDS011;32066;49.474;11.106;2023-07-22T10:56:13;7.40;;;3.60;;
46355;SDS011;32066;49.474;11.106;2023-07-22T10:58:54;6.30;;;3.50;;
46355;SDS011;32066;49.474;11.106;2023-07-22T11:01:30;6.40;;;3.90;;
46355;SDS011;32066;49.474;11.106;2023-07-22T11:06:39;7.35;;;4.60;;
46355;SDS011;32066;49.474;11.106;2023-07-22T11:12:05;7.40;;;3.43;;
46355;SDS011;32066;49.474;11.106;2023-07-22T11:14:38;5.78;;;3.60;;
46355;SDS011;32066;49.474;11.106;2023-07-22T11:17:07;5.32;;;3.65;;
46355;SDS011;32066;49.474;11.106;2023-07-22T11:19:39;8.73;;;4.07;;
46355;SDS011;32066;49.474;11.106;2023-07-22T11:22:08;9.57;;;4.20;;
46355;SDS011;32066;49.474;11.106;2023-07-22T11:24:37;7.82;;;4.20;;
46355;SDS011;32066;49.474;11.106;2023-07-22T11:27:06;6.53;;;3.40;;
46355;SDS011;32066;49.474;11.106;2023-07-22T11:29:36;5.18;;;3.22;;
46355;SDS011;32066;49.474;11.106;2023-07-22T11:32:05;10.10;;;3.72;;
46355;SDS011;32066;49.474;11.106;2023-07-22T11:34:35;4.50;;;2.63;;
46355;SDS011;32066;49.474;11.106;2023-07-22T11:37:10;6.57;;;2.90;;
46355;SDS011;32066;49.474;11.106;2023-07-22T11:39:40;8.10;;;2.97;;
46355;SDS011;32066;49.474;11.106;2023-07-22T11:42:09;6.68;;;3.10;;
46355;SDS011;32066;49.474;11.106;2023-07-22T11:44:39;7.03;;;2.90;;
46355;SDS011;32066;49.474;11.106;2023-07-22T11:47:08;8.75;;;2.88;;
46355;SDS011;32066;49.474;11.106;2023-07-22T11:49:38;5.97;;;2.92;;
46355;SDS011;32066;49.474;11.106;2023-07-22T11:52:11;6.20;;;2.65;;
46355;SDS011;32066;49.474;11.106;2023-07-22T11:54:44;7.20;;;3.55;;
46355;SDS011;32066;49.474;11.106;2023-07-22T11:57:14;7.22;;;3.00;;
46355;SDS011;32066;49.474;11.106;2023-07-22T11:59:44;6.30;;;2.60;;
46355;SDS011;32066;49.474;11.106;2023-07-22T12:02:14;7.38;;;3.10;;
46355;SDS011;32066;49.474;11.106;2023-07-22T12:04:51;6.88;;;2.80;;
46355;SDS011;32066;49.474;11.106;2023-07-22T12:07:26;5.60;;;2.78;;
46355;SDS011;32066;49.474;11.106;2023-07-22T12:09:57;4.93;;;2.88;;
46355;SDS011;32066;49.474;11.106;2023-07-22T12:12:33;5.78;;;2.60;;
46355;SDS011;32066;49.474;11.106;2023-07-22T12:15:02;6.03;;;2.80;;
46355;SDS011;32066;49.474;11.106;2023-07-22T12:17:43;4.88;;;2.70;;
46355;SDS011;32066;49.474;11.106;2023-07-22T12:20:12;7.05;;;2.85;;
46355;SDS011;32066;49.474;11.106;2023-07-22T12:22:44;7.03;;;2.38;;
46355;SDS011;32066;49.474;11.106;2023-07-22T12:25:13;5.43;;;2.88;;
46355;SDS011;32066;49.474;11.106;2023-07-22T12:27:43;5.47;;;2.72;;
46355;SDS011;32066;49.474;11.106;2023-07-22T12:30:12;5.32;;;2.40;;
46355;SDS011;32066;49.474;11.106;2023-07-22T12:32:41;6.45;;;2.80;;
46355;SDS011;32066;49.474;11.106;2023-07-22T12:35:10;5.60;;;2.78;;
46355;SDS011;32066;49.474;11.106;2023-07-22T12:37:39;4.13;;;2.33;;
46355;SDS011;32066;49.474;11.106;2023-07-22T12:40:10;6.60;;;2.85;;
46355;SDS011;32066;49.474;11.106;2023-07-22T12:42:39;5.65;;;2.67;;
46355;SDS011;32066;49.474;11.106;2023-07-22T12:45:08;10.52;;;2.75;;
46355;SDS011;32066;49.474;11.106;2023-07-22T12:47:37;5.40;;;2.65;;
46355;SDS011;32066;49.474;11.106;2023-07-22T12:50:06;6.93;;;2.88;;
46355;SDS011;32066;49.474;11.106;2023-07-22T12:52:36;6.65;;;2.67;;
46355;SDS011;32066;49.474;11.106;2023-07-22T12:55:05;5.68;;;2.80;;
46355;SDS011;32066;49.474;11.106;2023-07-22T12:57:37;5.40;;;2.67;;
46355;SDS011;32066;49.474;11.106;2023-07-22T13:00:06;5.15;;;2.45;;
46355;SDS011;32066;49.474;11.106;2023-07-22T13:02:37;4.72;;;2.50;;
46355;SDS011;32066;49.474;11.106;2023-07-22T13:05:06;5.28;;;2.50;;
46355;SDS011;32066;49.474;11.106;2023-07-22T13:07:35;5.95;;;2.70;;
46355;SDS011;32066;49.474;11.106;2023-07-22T13:10:04;5.95;;;2.75;;
46355;SDS011;32066;49.474;11.106;2023-07-22T13:12:40;6.07;;;2.88;;
46355;SDS011;32066;49.474;11.106;2023-07-22T13:15:09;5.05;;;2.33;;
46355;SDS011;32066;49.474;11.106;2023-07-22T13:17:38;6.28;;;2.58;;
46355;SDS011;32066;49.474;11.106;2023-07-22T13:20:07;6.10;;;2.63;;
46355;SDS011;32066;49.474;11.106;2023-07-22T13:22:36;5.28;;;2.83;;
46355;SDS011;32066;49.474;11.106;2023-07-22T13:25:06;6.78;;;2.78;;
46355;SDS011;32066;49.474;11.106;2023-07-22T13:27:35;6.32;;;2.55;;
46355;SDS011;32066;49.474;11.106;2023-07-22T13:30:08;5.30;;;2.80;;
46355;SDS011;32066;49.474;11.106;2023-07-22T13:32:38;6.13;;;2.63;;
46355;SDS011;32066;49.474;11.106;2023-07-22T13:35:07;6.25;;;2.78;;
46355;SDS011;32066;49.474;11.106;2023-07-22T13:37:37;8.13;;;2.80;;
46355;SDS011;32066;49.474;11.106;2023-07-22T13:40:06;7.45;;;2.78;;
46355;SDS011;32066;49.474;11.106;2023-07-22T13:42:37;6.45;;;2.80;;
46355;SDS011;32066;49.474;11.106;2023-07-22T13:45:09;7.25;;;2.67;;
46355;SDS011;32066;49.474;11.106;2023-07-22T13:47:38;6.20;;;2.88;;
46355;SDS011;32066;49.474;11.106;2023-07-22T13:50:07;11.55;;;3.03;;
46355;SDS011;32066;49.474;11.106;2023-07-22T13:52:36;4.93;;;2.70;;
46355;SDS011;32066;49.474;11.106;2023-07-22T13:55:06;5.03;;;2.60;;
46355;SDS011;32066;49.474;11.106;2023-07-22T13:57:36;4.25;;;2.47;;
46355;SDS011;32066;49.474;11.106;2023-07-22T14:00:05;5.63;;;2.60;;
46355;SDS011;32066;49.474;11.106;2023-07-22T14:02:38;5.40;;;2.90;;
46355;SDS011;32066;49.474;11.106;2023-07-22T14:05:07;8.32;;;2.53;;
46355;SDS011;32066;49.474;11.106;2023-07-22T14:07:36;5.15;;;2.80;;
46355;SDS011;32066;49.474;11.106;2023-07-22T14:10:05;5.93;;;2.80;;
46355;SDS011;32066;49.474;11.106;2023-07-22T14:12:34;5.72;;;3.20;;
46355;SDS011;32066;49.474;11.106;2023-07-22T14:15:03;6.20;;;3.03;;
46355;SDS011;32066;49.474;11.106;2023-07-22T14:17:36;5.55;;;3.20;;
46355;SDS011;32066;49.474;11.106;2023-07-22T14:20:06;6.18;;;2.88;;
46355;SDS011;32066;49.474;11.106;2023-07-22T14:22:36;7.50;;;3.33;;
46355;SDS011;32066;49.474;11.106;2023-07-22T14:25:05;6.47;;;2.67;;
46355;SDS011;32066;49.474;11.106;2023-07-22T14:27:34;5.70;;;2.45;;
46355;SDS011;32066;49.474;11.106;2023-07-22T14:30:03;5.30;;;2.42;;
46355;SDS011;32066;49.474;11.106;2023-07-22T14:32:35;6.10;;;3.16;;
46355;SDS011;32066;49.474;11.106;2023-07-22T14:35:05;8.02;;;2.90;;
46355;SDS011;32066;49.474;11.106;2023-07-22T14:37:35;4.88;;;2.50;;
46355;SDS011;32066;49.474;11.106;2023-07-22T14:40:04;6.05;;;2.75;;
46355;SDS011;32066;49.474;11.106;2023-07-22T14:42:34;7.93;;;2.80;;
46355;SDS011;32066;49.474;11.106;2023-07-22T14:45:03;6.63;;;2.47;;
46355;SDS011;32066;49.474;11.106;2023-07-22T14:47:36;4.15;;;2.60;;
46355;SDS011;32066;49.474;11.106;2023-07-22T14:50:05;4.55;;;2.35;;
46355;SDS011;32066;49.474;11.106;2023-07-22T14:52:34;5.57;;;2.92;;
46355;SDS011;32066;49.474;11.106;2023-07-22T14:55:03;4.78;;;2.47;;